sensor_id;sensor_type;location;lat;lon;timestamp;pressure;altitude;pressure_sealevel;temperature;humidity
32492;BME280;20605;49.742;18.802;2023-02-19T00:01:20;97572.88;;;8.21;100.00
32492;BME280;20605;49.742;18.802;2023-02-19T00:03:48;97579.66;;;8.19;100.00
32492;BME280;20605;49.742;18.802;2023-02-19T00:06:17;97578.18;;;8.16;100.00
32492;BME280;20605;49.742;18.802;2023-02-19T00:08:44;97584.30;;;8.14;100.00
32492;BME280;20605;49.742;18.802;2023-02-19T00:11:16;97586.48;;;8.10;100.00
32492;BME280;20605;49.742;18.802;2023-02-19T00:13:44;97597.82;;;8.06;100.00
32492;BME280;20605;49.742;18.802;2023-02-19T00:16:48;97599.04;;;7.99;100.00
32492;BME280;20605;49.742;18.802;2023-02-19T00:19:11;97606.61;;;7.86;100.00
32492;BME280;20605;49.742;18.802;2023-02-19T00:21:37;97604.41;;;7.77;100.00
32492;BME280;20605;49.742;18.802;2023-02-19T00:24:05;97607.70;;;7.70;100.00
32492;BME280;20605;49.742;18.802;2023-02-19T00:26:33;97607.05;;;7.62;100.00
32492;BME280;20605;49.742;18.802;2023-02-19T00:29:00;97612.64;;;7.51;100.00
32492;BME280;20605;49.742;18.802;2023-02-19T00:31:29;97612.14;;;7.43;100.00
32492;BME280;20605;49.742;18.802;2023-02-19T00:33:57;97614.36;;;7.36;100.00
32492;BME280;20605;49.742;18.802;2023-02-19T00:36:25;97617.70;;;7.33;100.00
32492;BME280;20605;49.742;18.802;2023-02-19T00:38:51;97620.00;;;7.30;100.00
32492;BME280;20605;49.742;18.802;2023-02-19T00:41:19;97623.80;;;7.30;100.00
32492;BME280;20605;49.742;18.802;2023-02-19T00:46:16;97618.36;;;7.27;100.00
32492;BME280;20605;49.742;18.802;2023-02-19T00:48:43;97618.70;;;7.27;100.00
32492;BME280;20605;49.742;18.802;2023-02-19T00:51:09;97619.05;;;7.26;100.00
32492;BME280;20605;49.742;18.802;2023-02-19T00:53:35;97619.70;;;7.28;100.00
32492;BME280;20605;49.742;18.802;2023-02-19T00:56:01;97608.70;;;7.26;100.00
32492;BME280;20605;49.742;18.802;2023-02-19T00:58:27;97604.70;;;7.27;100.00
32492;BME280;20605;49.742;18.802;2023-02-19T01:00:53;97599.40;;;7.32;100.00
32492;BME280;20605;49.742;18.802;2023-02-19T01:03:19;97597.64;;;7.35;100.00
32492;BME280;20605;49.742;18.802;2023-02-19T01:05:50;97596.39;;;7.36;100.00
32492;BME280;20605;49.742;18.802;2023-02-19T01:08:18;97593.23;;;7.38;100.00
32492;BME280;20605;49.742;18.802;2023-02-19T01:10:44;97590.61;;;7.39;100.00
32492;BME280;20605;49.742;18.802;2023-02-19T01:13:10;97593.17;;;7.41;100.00
32492;BME280;20605;49.742;18.802;2023-02-19T01:15:36;97589.49;;;7.43;100.00
32492;BME280;20605;49.742;18.802;2023-02-19T01:18:02;97592.19;;;7.46;100.00
32492;BME280;20605;49.742;18.802;2023-02-19T01:20:28;97590.33;;;7.44;100.00
32492;BME280;20605;49.742;18.802;2023-02-19T01:22:54;97589.37;;;7.41;100.00
32492;BME280;20605;49.742;18.802;2023-02-19T01:25:20;97582.62;;;7.34;100.00
32492;BME280;20605;49.742;18.802;2023-02-19T01:27:46;97581.77;;;7.25;100.00
32492;BME280;20605;49.742;18.802;2023-02-19T01:30:12;97578.25;;;7.13;100.00
32492;BME280;20605;49.742;18.802;2023-02-19T01:32:37;97571.61;;;7.00;100.00
32492;BME280;20605;49.742;18.802;2023-02-19T01:35:04;97571.45;;;6.91;100.00
32492;BME280;20605;49.742;18.802;2023-02-19T01:37:30;97561.96;;;6.82;100.00
32492;BME280;20605;49.742;18.802;2023-02-19T01:39:56;97562.27;;;6.77;100.00
32492;BME280;20605;49.742;18.802;2023-02-19T01:42:21;97555.48;;;6.70;100.00
32492;BME280;20605;49.742;18.802;2023-02-19T01:47:15;97547.56;;;6.61;100.00
32492;BME280;20605;49.742;18.802;2023-02-19T01:49:54;97537.38;;;6.61;100.00
32492;BME280;20605;49.742;18.802;2023-02-19T01:52:29;97529.15;;;6.59;100.00
32492;BME280;20605;49.742;18.802;2023-02-19T01:54:57;97531.20;;;6.60;100.00
32492;BME280;20605;49.742;18.802;2023-02-19T01:57:28;97531.75;;;6.67;100.00
32492;BME280;20605;49.742;18.802;2023-02-19T02:00:03;97537.39;;;6.77;100.00
32492;BME280;20605;49.742;18.802;2023-02-19T02:02:40;97537.02;;;6.87;100.00
32492;BME280;20605;49.742;18.802;2023-02-19T02:08:03;97532.25;;;7.08;100.00
32492;BME280;20605;49.742;18.802;2023-02-19T02:10:52;97537.79;;;7.15;100.00
32492;BME280;20605;49.742;18.802;2023-02-19T02:13:19;97541.33;;;7.19;100.00
32492;BME280;20605;49.742;18.802;2023-02-19T02:18:39;97536.96;;;7.22;100.00
32492;BME280;20605;49.742;18.802;2023-02-19T02:27:00;97526.27;;;7.06;100.00
32492;BME280;20605;49.742;18.802;2023-02-19T02:30:22;97532.68;;;6.96;100.00
32492;BME280;20605;49.742;18.802;2023-02-19T02:32:25;97527.04;;;7.02;100.00
32492;BME280;20605;49.742;18.802;2023-02-19T02:34:57;97524.82;;;7.09;100.00
32492;BME280;20605;49.742;18.802;2023-02-19T02:37:26;97520.94;;;7.12;100.00
32492;BME280;20605;49.742;18.802;2023-02-19T02:39:56;97520.36;;;7.14;100.00
32492;BME280;20605;49.742;18.802;2023-02-19T02:42:23;97518.23;;;7.17;100.00
32492;BME280;20605;49.742;18.802;2023-02-19T02:45:06;97515.81;;;7.17;100.00
32492;BME280;20605;49.742;18.802;2023-02-19T02:48:46;97511.42;;;7.21;100.00
32492;BME280;20605;49.742;18.802;2023-02-19T02:53:50;97496.39;;;7.21;100.00
32492;BME280;20605;49.742;18.802;2023-02-19T02:56:37;97488.11;;;7.13;100.00
32492;BME280;20605;49.742;18.802;2023-02-19T02:59:08;97490.05;;;7.04;100.00
32492;BME280;20605;49.742;18.802;2023-02-19T03:01:45;97475.79;;;6.93;100.00
32492;BME280;20605;49.742;18.802;2023-02-19T03:07:59;97467.78;;;6.65;100.00
32492;BME280;20605;49.742;18.802;2023-02-19T03:10:48;97465.17;;;6.50;100.00
32492;BME280;20605;49.742;18.802;2023-02-19T03:13:21;97464.71;;;6.40;100.00
32492;BME280;20605;49.742;18.802;2023-02-19T03:16:14;97454.65;;;6.35;100.00
32492;BME280;20605;49.742;18.802;2023-02-19T03:19:00;97462.76;;;6.26;100.00
32492;BME280;20605;49.742;18.802;2023-02-19T03:22:04;97459.84;;;6.26;100.00
32492;BME280;20605;49.742;18.802;2023-02-19T03:24:40;97457.17;;;6.20;100.00
32492;BME280;20605;49.742;18.802;2023-02-19T03:27:31;97453.87;;;6.14;100.00
32492;BME280;20605;49.742;18.802;2023-02-19T03:30:04;97449.42;;;6.11;100.00
32492;BME280;20605;49.742;18.802;2023-02-19T03:32:47;97439.77;;;6.04;100.00
32492;BME280;20605;49.742;18.802;2023-02-19T03:35:21;97438.02;;;5.96;100.00
32492;BME280;20605;49.742;18.802;2023-02-19T03:38:16;97446.71;;;5.92;100.00
32492;BME280;20605;49.742;18.802;2023-02-19T03:41:03;97457.63;;;5.97;100.00
32492;BME280;20605;49.742;18.802;2023-02-19T03:48:57;97458.11;;;6.17;100.00
32492;BME280;20605;49.742;18.802;2023-02-19T03:51:36;97454.76;;;6.20;100.00
32492;BME280;20605;49.742;18.802;2023-02-19T03:54:38;97446.65;;;6.21;100.00
32492;BME280;20605;49.742;18.802;2023-02-19T04:00:17;97445.69;;;6.26;100.00
32492;BME280;20605;49.742;18.802;2023-02-19T04:05:20;97429.50;;;6.41;100.00
32492;BME280;20605;49.742;18.802;2023-02-19T04:07:49;97426.90;;;6.50;100.00
32492;BME280;20605;49.742;18.802;2023-02-19T04:10:18;97424.60;;;6.60;100.00
32492;BME280;20605;49.742;18.802;2023-02-19T04:12:53;97421.50;;;6.67;100.00
32492;BME280;20605;49.742;18.802;2023-02-19T04:15:25;97420.80;;;6.75;100.00
32492;BME280;20605;49.742;18.802;2023-02-19T04:18:08;97418.92;;;6.82;100.00
32492;BME280;20605;49.742;18.802;2023-02-19T04:20:41;97415.30;;;6.89;100.00
32492;BME280;20605;49.742;18.802;2023-02-19T04:23:08;97406.00;;;6.96;100.00
32492;BME280;20605;49.742;18.802;2023-02-19T04:25:36;97405.65;;;7.03;100.00
32492;BME280;20605;49.742;18.802;2023-02-19T04:28:03;97386.52;;;7.09;100.00
32492;BME280;20605;49.742;18.802;2023-02-19T04:30:29;97382.94;;;7.14;100.00
32492;BME280;20605;49.742;18.802;2023-02-19T04:32:54;97389.73;;;7.19;100.00
32492;BME280;20605;49.742;18.802;2023-02-19T04:35:20;97398.80;;;7.22;100.00
32492;BME280;20605;49.742;18.802;2023-02-19T04:37:46;97399.25;;;7.25;100.00
32492;BME280;20605;49.742;18.802;2023-02-19T04:40:12;97399.87;;;7.28;100.00
32492;BME280;20605;49.742;18.802;2023-02-19T04:42:37;97395.80;;;7.32;100.00
32492;BME280;20605;49.742;18.802;2023-02-19T04:45:03;97388.84;;;7.34;100.00
32492;BME280;20605;49.742;18.802;2023-02-19T04:47:31;97393.97;;;7.36;100.00
32492;BME280;20605;49.742;18.802;2023-02-19T04:49:57;97392.17;;;7.38;100.00
32492;BME280;20605;49.742;18.802;2023-02-19T04:52:23;97387.94;;;7.42;100.00
32492;BME280;20605;49.742;18.802;2023-02-19T04:54:48;97391.65;;;7.45;100.00
32492;BME280;20605;49.742;18.802;2023-02-19T04:57:14;97393.65;;;7.48;100.00
32492;BME280;20605;49.742;18.802;2023-02-19T04:59:40;97386.85;;;7.50;100.00
32492;BME280;20605;49.742;18.802;2023-02-19T05:02:06;97383.52;;;7.52;100.00
32492;BME280;20605;49.742;18.802;2023-02-19T05:04:32;97373.09;;;7.55;100.00
32492;BME280;20605;49.742;18.802;2023-02-19T05:06:57;97372.14;;;7.58;100.00
32492;BME280;20605;49.742;18.802;2023-02-19T05:09:23;97373.10;;;7.61;100.00
32492;BME280;20605;49.742;18.802;2023-02-19T05:11:49;97370.79;;;7.63;100.00
32492;BME280;20605;49.742;18.802;2023-02-19T05:14:15;97366.25;;;7.65;100.00
32492;BME280;20605;49.742;18.802;2023-02-19T05:16:41;97358.95;;;7.66;100.00
32492;BME280;20605;49.742;18.802;2023-02-19T05:19:10;97354.09;;;7.67;100.00
32492;BME280;20605;49.742;18.802;2023-02-19T05:21:37;97350.57;;;7.70;100.00
32492;BME280;20605;49.742;18.802;2023-02-19T05:24:05;97346.02;;;7.72;100.00
32492;BME280;20605;49.742;18.802;2023-02-19T05:26:31;97346.84;;;7.73;100.00
32492;BME280;20605;49.742;18.802;2023-02-19T05:28:58;97349.20;;;7.75;100.00
32492;BME280;20605;49.742;18.802;2023-02-19T05:31:24;97352.41;;;7.78;100.00
32492;BME280;20605;49.742;18.802;2023-02-19T05:33:50;97345.83;;;7.78;100.00
32492;BME280;20605;49.742;18.802;2023-02-19T05:36:20;97350.99;;;7.79;100.00
32492;BME280;20605;49.742;18.802;2023-02-19T05:38:46;97344.52;;;7.80;100.00
32492;BME280;20605;49.742;18.802;2023-02-19T05:41:18;97344.02;;;7.80;100.00
32492;BME280;20605;49.742;18.802;2023-02-19T05:43:45;97351.41;;;7.82;100.00
32492;BME280;20605;49.742;18.802;2023-02-19T05:46:15;97351.89;;;7.83;100.00
32492;BME280;20605;49.742;18.802;2023-02-19T05:48:42;97350.66;;;7.83;100.00
32492;BME280;20605;49.742;18.802;2023-02-19T05:51:11;97350.83;;;7.84;100.00
32492;BME280;20605;49.742;18.802;2023-02-19T05:53:38;97351.51;;;7.84;100.00
32492;BME280;20605;49.742;18.802;2023-02-19T05:56:12;97349.77;;;7.85;100.00
32492;BME280;20605;49.742;18.802;2023-02-19T05:58:45;97354.95;;;7.85;100.00
32492;BME280;20605;49.742;18.802;2023-02-19T06:01:19;97359.96;;;7.85;100.00
32492;BME280;20605;49.742;18.802;2023-02-19T06:03:45;97362.94;;;7.84;100.00
32492;BME280;20605;49.742;18.802;2023-02-19T06:06:13;97368.34;;;7.82;100.00
32492;BME280;20605;49.742;18.802;2023-02-19T06:08:39;97366.24;;;7.83;100.00
32492;BME280;20605;49.742;18.802;2023-02-19T06:11:05;97368.14;;;7.82;100.00
32492;BME280;20605;49.742;18.802;2023-02-19T06:13:30;97370.26;;;7.81;100.00
32492;BME280;20605;49.742;18.802;2023-02-19T06:15:56;97377.02;;;7.81;100.00
32492;BME280;20605;49.742;18.802;2023-02-19T06:18:22;97379.46;;;7.80;100.00
32492;BME280;20605;49.742;18.802;2023-02-19T06:20:48;97377.98;;;7.78;100.00
32492;BME280;20605;49.742;18.802;2023-02-19T06:23:14;97375.46;;;7.75;100.00
32492;BME280;20605;49.742;18.802;2023-02-19T06:25:40;97380.01;;;7.74;100.00
32492;BME280;20605;49.742;18.802;2023-02-19T06:28:06;97379.02;;;7.72;100.00
32492;BME280;20605;49.742;18.802;2023-02-19T06:30:35;97379.37;;;7.72;100.00
32492;BME280;20605;49.742;18.802;2023-02-19T06:33:01;97377.80;;;7.72;100.00
32492;BME280;20605;49.742;18.802;2023-02-19T06:35:27;97377.50;;;7.71;100.00
32492;BME280;20605;49.742;18.802;2023-02-19T06:37:53;97376.54;;;7.68;100.00
32492;BME280;20605;49.742;18.802;2023-02-19T06:40:19;97374.20;;;7.65;100.00
32492;BME280;20605;49.742;18.802;2023-02-19T06:42:44;97364.55;;;7.64;100.00
32492;BME280;20605;49.742;18.802;2023-02-19T06:45:10;97370.30;;;7.62;100.00
32492;BME280;20605;49.742;18.802;2023-02-19T06:47:36;97369.84;;;7.61;100.00
32492;BME280;20605;49.742;18.802;2023-02-19T06:50:02;97365.05;;;7.58;100.00
32492;BME280;20605;49.742;18.802;2023-02-19T06:52:28;97362.48;;;7.58;100.00
32492;BME280;20605;49.742;18.802;2023-02-19T06:54:54;97360.84;;;7.54;100.00
32492;BME280;20605;49.742;18.802;2023-02-19T06:57:19;97359.85;;;7.52;100.00
32492;BME280;20605;49.742;18.802;2023-02-19T06:59:45;97360.04;;;7.52;100.00
32492;BME280;20605;49.742;18.802;2023-02-19T07:02:11;97361.85;;;7.48;100.00
32492;BME280;20605;49.742;18.802;2023-02-19T07:04:37;97354.11;;;7.47;100.00
32492;BME280;20605;49.742;18.802;2023-02-19T07:07:03;97354.58;;;7.49;100.00
32492;BME280;20605;49.742;18.802;2023-02-19T07:09:30;97353.11;;;7.52;100.00
32492;BME280;20605;49.742;18.802;2023-02-19T07:11:55;97351.50;;;7.54;100.00
32492;BME280;20605;49.742;18.802;2023-02-19T07:14:21;97347.98;;;7.57;100.00
32492;BME280;20605;49.742;18.802;2023-02-19T07:16:48;97341.03;;;7.59;100.00
32492;BME280;20605;49.742;18.802;2023-02-19T07:19:14;97342.94;;;7.58;100.00
32492;BME280;20605;49.742;18.802;2023-02-19T07:21:41;97345.41;;;7.56;100.00
32492;BME280;20605;49.742;18.802;2023-02-19T07:24:08;97341.16;;;7.53;100.00
32492;BME280;20605;49.742;18.802;2023-02-19T07:26:35;97341.05;;;7.51;100.00
32492;BME280;20605;49.742;18.802;2023-02-19T07:29:00;97337.30;;;7.49;100.00
32492;BME280;20605;49.742;18.802;2023-02-19T07:31:27;97338.73;;;7.47;100.00
32492;BME280;20605;49.742;18.802;2023-02-19T07:33:54;97334.32;;;7.44;100.00
32492;BME280;20605;49.742;18.802;2023-02-19T07:36:22;97335.61;;;7.41;100.00
32492;BME280;20605;49.742;18.802;2023-02-19T07:38:55;97335.43;;;7.42;100.00
32492;BME280;20605;49.742;18.802;2023-02-19T07:41:23;97328.98;;;7.44;100.00
32492;BME280;20605;49.742;18.802;2023-02-19T07:43:49;97333.27;;;7.45;100.00
32492;BME280;20605;49.742;18.802;2023-02-19T07:46:16;97327.85;;;7.47;100.00
32492;BME280;20605;49.742;18.802;2023-02-19T07:48:42;97325.07;;;7.48;100.00
32492;BME280;20605;49.742;18.802;2023-02-19T07:51:14;97322.98;;;7.49;100.00
32492;BME280;20605;49.742;18.802;2023-02-19T07:53:48;97319.15;;;7.50;100.00
32492;BME280;20605;49.742;18.802;2023-02-19T07:56:18;97314.05;;;7.53;100.00
32492;BME280;20605;49.742;18.802;2023-02-19T07:58:45;97316.58;;;7.56;100.00
32492;BME280;20605;49.742;18.802;2023-02-19T08:01:16;97310.98;;;7.58;100.00
32492;BME280;20605;49.742;18.802;2023-02-19T08:03:43;97311.36;;;7.57;100.00
32492;BME280;20605;49.742;18.802;2023-02-19T08:06:10;97306.87;;;7.57;100.00
32492;BME280;20605;49.742;18.802;2023-02-19T08:08:37;97305.94;;;7.59;100.00
32492;BME280;20605;49.742;18.802;2023-02-19T08:11:04;97299.02;;;7.59;100.00
32492;BME280;20605;49.742;18.802;2023-02-19T08:13:51;97300.19;;;7.61;100.00
32492;BME280;20605;49.742;18.802;2023-02-19T08:16:18;97299.30;;;7.61;100.00
32492;BME280;20605;49.742;18.802;2023-02-19T08:18:45;97297.67;;;7.64;100.00
32492;BME280;20605;49.742;18.802;2023-02-19T08:21:12;97299.09;;;7.69;100.00
32492;BME280;20605;49.742;18.802;2023-02-19T08:23:39;97300.69;;;7.74;100.00
32492;BME280;20605;49.742;18.802;2023-02-19T08:26:06;97300.11;;;7.75;100.00
32492;BME280;20605;49.742;18.802;2023-02-19T08:28:33;97299.38;;;7.77;100.00
32492;BME280;20605;49.742;18.802;2023-02-19T08:31:04;97300.93;;;7.82;100.00
32492;BME280;20605;49.742;18.802;2023-02-19T08:33:31;97302.00;;;7.87;100.00
32492;BME280;20605;49.742;18.802;2023-02-19T08:36:01;97295.80;;;7.92;100.00
32492;BME280;20605;49.742;18.802;2023-02-19T08:38:30;97292.52;;;7.98;100.00
32492;BME280;20605;49.742;18.802;2023-02-19T08:40:56;97291.83;;;8.03;100.00
32492;BME280;20605;49.742;18.802;2023-02-19T08:43:22;97289.73;;;8.10;100.00
32492;BME280;20605;49.742;18.802;2023-02-19T08:45:52;97291.06;;;8.17;100.00
32492;BME280;20605;49.742;18.802;2023-02-19T08:48:18;97278.45;;;8.23;100.00
32492;BME280;20605;49.742;18.802;2023-02-19T08:50:44;97273.38;;;8.19;100.00
32492;BME280;20605;49.742;18.802;2023-02-19T08:53:10;97270.01;;;8.16;100.00
32492;BME280;20605;49.742;18.802;2023-02-19T08:55:36;97266.36;;;8.17;100.00
32492;BME280;20605;49.742;18.802;2023-02-19T08:58:03;97264.40;;;8.24;100.00
32492;BME280;20605;49.742;18.802;2023-02-19T09:00:29;97261.77;;;8.37;100.00
32492;BME280;20605;49.742;18.802;2023-02-19T09:02:57;97265.55;;;8.49;100.00
32492;BME280;20605;49.742;18.802;2023-02-19T09:05:22;97266.51;;;8.52;100.00
32492;BME280;20605;49.742;18.802;2023-02-19T09:07:48;97271.40;;;8.50;100.00
32492;BME280;20605;49.742;18.802;2023-02-19T09:10:14;97269.00;;;8.49;100.00
32492;BME280;20605;49.742;18.802;2023-02-19T09:12:40;97267.29;;;8.49;100.00
32492;BME280;20605;49.742;18.802;2023-02-19T09:15:06;97272.92;;;8.45;100.00
32492;BME280;20605;49.742;18.802;2023-02-19T09:17:32;97269.39;;;8.42;100.00
32492;BME280;20605;49.742;18.802;2023-02-19T09:19:58;97267.39;;;8.40;100.00
32492;BME280;20605;49.742;18.802;2023-02-19T09:22:24;97266.75;;;8.39;100.00
32492;BME280;20605;49.742;18.802;2023-02-19T09:24:49;97265.39;;;8.38;100.00
32492;BME280;20605;49.742;18.802;2023-02-19T09:27:17;97266.04;;;8.33;100.00
32492;BME280;20605;49.742;18.802;2023-02-19T09:29:45;97265.47;;;8.29;100.00
32492;BME280;20605;49.742;18.802;2023-02-19T09:32:12;97267.83;;;8.25;100.00
32492;BME280;20605;49.742;18.802;2023-02-19T09:34:38;97265.56;;;8.26;100.00
32492;BME280;20605;49.742;18.802;2023-02-19T09:37:05;97258.80;;;8.26;100.00
32492;BME280;20605;49.742;18.802;2023-02-19T09:39:32;97262.70;;;8.29;100.00
32492;BME280;20605;49.742;18.802;2023-02-19T09:42:08;97263.31;;;8.32;100.00
32492;BME280;20605;49.742;18.802;2023-02-19T09:44:38;97262.25;;;8.33;100.00
32492;BME280;20605;49.742;18.802;2023-02-19T09:47:14;97262.63;;;8.38;100.00
32492;BME280;20605;49.742;18.802;2023-02-19T09:49:44;97265.04;;;8.44;100.00
32492;BME280;20605;49.742;18.802;2023-02-19T09:54:52;97274.82;;;8.51;100.00
32492;BME280;20605;49.742;18.802;2023-02-19T09:57:23;97280.96;;;8.48;100.00
32492;BME280;20605;49.742;18.802;2023-02-19T10:00:04;97276.22;;;8.51;100.00
32492;BME280;20605;49.742;18.802;2023-02-19T10:02:30;97271.31;;;8.53;100.00
32492;BME280;20605;49.742;18.802;2023-02-19T10:04:57;97280.45;;;8.54;100.00
32492;BME280;20605;49.742;18.802;2023-02-19T10:07:25;97286.63;;;8.56;100.00
32492;BME280;20605;49.742;18.802;2023-02-19T10:09:58;97297.61;;;8.58;100.00
32492;BME280;20605;49.742;18.802;2023-02-19T10:12:28;97316.28;;;8.53;100.00
32492;BME280;20605;49.742;18.802;2023-02-19T10:15:00;97329.46;;;8.35;100.00
32492;BME280;20605;49.742;18.802;2023-02-19T10:17:31;97336.74;;;8.11;100.00
32492;BME280;20605;49.742;18.802;2023-02-19T10:20:00;97334.90;;;7.91;100.00
32492;BME280;20605;49.742;18.802;2023-02-19T10:22:28;97343.65;;;7.76;100.00
32492;BME280;20605;49.742;18.802;2023-02-19T10:24:55;97346.55;;;7.65;100.00
32492;BME280;20605;49.742;18.802;2023-02-19T10:27:30;97349.55;;;7.57;100.00
32492;BME280;20605;49.742;18.802;2023-02-19T10:29:56;97355.89;;;7.45;100.00
32492;BME280;20605;49.742;18.802;2023-02-19T10:32:25;97363.34;;;7.31;100.00
32492;BME280;20605;49.742;18.802;2023-02-19T10:35:15;97372.27;;;7.26;100.00
32492;BME280;20605;49.742;18.802;2023-02-19T10:37:47;97376.69;;;7.30;100.00
32492;BME280;20605;49.742;18.802;2023-02-19T10:40:28;97383.65;;;7.34;100.00
32492;BME280;20605;49.742;18.802;2023-02-19T14:15:57;97708.10;;;4.29;100.00
32492;BME280;20605;49.742;18.802;2023-02-19T14:18:46;97714.13;;;4.28;100.00
32492;BME280;20605;49.742;18.802;2023-02-19T14:21:25;97716.35;;;4.29;100.00
32492;BME280;20605;49.742;18.802;2023-02-19T14:27:01;97735.91;;;4.34;100.00
32492;BME280;20605;49.742;18.802;2023-02-19T14:30:18;97749.16;;;4.31;100.00
32492;BME280;20605;49.742;18.802;2023-02-19T14:33:31;97749.36;;;4.28;100.00
32492;BME280;20605;49.742;18.802;2023-02-19T14:38:47;97758.08;;;4.12;100.00
32492;BME280;20605;49.742;18.802;2023-02-19T14:41:55;97774.14;;;3.98;100.00
32492;BME280;20605;49.742;18.802;2023-02-19T15:19:51;97829.86;;;3.51;100.00
32492;BME280;20605;49.742;18.802;2023-02-19T16:48:09;98001.34;;;3.03;100.00
32492;BME280;20605;49.742;18.802;2023-02-19T16:50:37;98012.13;;;2.97;100.00
32492;BME280;20605;49.742;18.802;2023-02-19T16:53:20;98018.81;;;2.91;100.00
32492;BME280;20605;49.742;18.802;2023-02-19T16:55:54;98029.09;;;2.85;100.00
32492;BME280;20605;49.742;18.802;2023-02-19T17:01:20;98046.88;;;2.72;100.00
32492;BME280;20605;49.742;18.802;2023-02-19T17:04:15;98052.70;;;2.65;100.00
32492;BME280;20605;49.742;18.802;2023-02-19T17:07:29;98062.60;;;2.49;100.00
32492;BME280;20605;49.742;18.802;2023-02-19T17:16:20;98086.45;;;2.22;100.00
32492;BME280;20605;49.742;18.802;2023-02-19T17:19:34;98094.80;;;2.14;100.00
32492;BME280;20605;49.742;18.802;2023-02-19T17:24:58;98107.55;;;2.01;100.00
32492;BME280;20605;49.742;18.802;2023-02-19T17:27:27;98111.13;;;1.97;100.00
32492;BME280;20605;49.742;18.802;2023-02-19T17:29:53;98118.96;;;1.92;100.00
32492;BME280;20605;49.742;18.802;2023-02-19T17:32:19;98123.73;;;1.87;100.00
32492;BME280;20605;49.742;18.802;2023-02-19T17:34:45;98124.73;;;1.86;100.00
32492;BME280;20605;49.742;18.802;2023-02-19T17:37:14;98121.98;;;1.84;100.00
32492;BME280;20605;49.742;18.802;2023-02-19T17:39:40;98122.14;;;1.82;100.00
32492;BME280;20605;49.742;18.802;2023-02-19T17:42:05;98121.09;;;1.79;100.00
32492;BME280;20605;49.742;18.802;2023-02-19T17:44:32;98127.41;;;1.78;100.00
32492;BME280;20605;49.742;18.802;2023-02-19T17:46:57;98125.53;;;1.78;100.00
32492;BME280;20605;49.742;18.802;2023-02-19T17:49:23;98131.70;;;1.80;100.00
32492;BME280;20605;49.742;18.802;2023-02-19T17:51:49;98143.22;;;1.84;100.00
32492;BME280;20605;49.742;18.802;2023-02-19T17:54:15;98153.68;;;1.87;100.00
32492;BME280;20605;49.742;18.802;2023-02-19T17:56:40;98164.83;;;1.89;100.00
32492;BME280;20605;49.742;18.802;2023-02-19T17:59:08;98164.00;;;1.93;100.00
32492;BME280;20605;49.742;18.802;2023-02-19T18:01:35;98160.77;;;1.95;100.00
32492;BME280;20605;49.742;18.802;2023-02-19T18:04:03;98162.67;;;1.96;100.00
32492;BME280;20605;49.742;18.802;2023-02-19T18:06:28;98163.21;;;2.01;100.00
32492;BME280;20605;49.742;18.802;2023-02-19T18:08:55;98166.65;;;2.02;100.00
32492;BME280;20605;49.742;18.802;2023-02-19T18:11:21;98171.48;;;2.06;100.00
32492;BME280;20605;49.742;18.802;2023-02-19T18:13:51;98172.23;;;2.14;100.00
32492;BME280;20605;49.742;18.802;2023-02-19T18:16:17;98173.66;;;2.22;100.00
32492;BME280;20605;49.742;18.802;2023-02-19T18:18:44;98181.59;;;2.31;100.00
32492;BME280;20605;49.742;18.802;2023-02-19T18:21:11;98186.40;;;2.33;100.00
32492;BME280;20605;49.742;18.802;2023-02-19T18:23:37;98186.42;;;2.34;100.00
32492;BME280;20605;49.742;18.802;2023-02-19T18:26:08;98194.81;;;2.33;100.00
32492;BME280;20605;49.742;18.802;2023-02-19T18:28:38;98194.48;;;2.34;100.00
32492;BME280;20605;49.742;18.802;2023-02-19T18:31:04;98198.94;;;2.36;100.00
32492;BME280;20605;49.742;18.802;2023-02-19T18:33:32;98202.56;;;2.39;100.00
32492;BME280;20605;49.742;18.802;2023-02-19T18:35:59;98203.43;;;2.41;100.00
32492;BME280;20605;49.742;18.802;2023-02-19T18:38:26;98208.26;;;2.45;100.00
32492;BME280;20605;49.742;18.802;2023-02-19T18:40:52;98209.27;;;2.43;100.00
32492;BME280;20605;49.742;18.802;2023-02-19T18:43:18;98211.14;;;2.41;100.00
32492;BME280;20605;49.742;18.802;2023-02-19T18:45:44;98211.65;;;2.40;100.00
32492;BME280;20605;49.742;18.802;2023-02-19T18:48:11;98208.21;;;2.39;100.00
32492;BME280;20605;49.742;18.802;2023-02-19T18:50:37;98206.50;;;2.38;100.00
32492;BME280;20605;49.742;18.802;2023-02-19T18:53:03;98211.10;;;2.35;100.00
32492;BME280;20605;49.742;18.802;2023-02-19T18:55:28;98209.71;;;2.34;100.00
32492;BME280;20605;49.742;18.802;2023-02-19T18:57:54;98215.02;;;2.33;100.00
32492;BME280;20605;49.742;18.802;2023-02-19T19:00:22;98212.95;;;2.31;100.00
32492;BME280;20605;49.742;18.802;2023-02-19T19:02:55;98214.67;;;2.32;100.00
32492;BME280;20605;49.742;18.802;2023-02-19T19:05:22;98210.90;;;2.31;100.00
32492;BME280;20605;49.742;18.802;2023-02-19T19:07:49;98211.23;;;2.28;100.00
32492;BME280;20605;49.742;18.802;2023-02-19T19:10:16;98217.17;;;2.23;100.00
32492;BME280;20605;49.742;18.802;2023-02-19T19:12:45;98219.37;;;2.18;100.00
32492;BME280;20605;49.742;18.802;2023-02-19T19:15:10;98221.02;;;2.11;100.00
32492;BME280;20605;49.742;18.802;2023-02-19T19:17:37;98230.55;;;2.04;100.00
32492;BME280;20605;49.742;18.802;2023-02-19T19:20:06;98236.34;;;2.00;100.00
32492;BME280;20605;49.742;18.802;2023-02-19T19:22:32;98242.08;;;1.91;100.00
32492;BME280;20605;49.742;18.802;2023-02-19T19:24:58;98243.05;;;1.86;100.00
32492;BME280;20605;49.742;18.802;2023-02-19T19:27:24;98242.67;;;1.83;100.00
32492;BME280;20605;49.742;18.802;2023-02-19T19:29:50;98248.43;;;1.76;100.00
32492;BME280;20605;49.742;18.802;2023-02-19T19:32:16;98255.20;;;1.69;100.00
32492;BME280;20605;49.742;18.802;2023-02-19T19:34:42;98261.14;;;1.64;100.00